createdAt,value
2019-02-12T17:12:44.894Z,12.63
2019-02-12T17:17:48.913Z,11.87
2019-02-12T17:22:52.746Z,11.80
2019-02-12T17:27:56.729Z,12.70
2019-02-12T17:33:00.646Z,11.87
2019-02-12T17:38:04.632Z,19.70
2019-02-12T17:43:08.501Z,13.97
2019-02-12T17:48:12.357Z,13.80
2019-02-12T17:53:16.332Z,12.83
2019-02-12T17:58:20.215Z,12.47
2019-02-12T18:03:24.126Z,11.87
2019-02-12T18:08:28.137Z,12.07
2019-02-12T18:13:32.592Z,11.13
2019-02-12T18:18:36.511Z,11.73
2019-02-12T18:23:40.429Z,12.07
2019-02-12T18:28:44.656Z,13.30
2019-02-12T18:33:48.666Z,14.87
2019-02-12T18:38:52.588Z,14.73
2019-02-12T18:43:56.627Z,17.43
2019-02-12T18:49:00.575Z,16.50
2019-02-12T18:54:04.545Z,18.27
2019-02-12T18:59:08.531Z,19.60
2019-02-12T19:04:12.807Z,18.67
2019-02-12T19:09:17.054Z,20.10
2019-02-12T19:14:21.173Z,19.73
2019-02-12T19:19:25.164Z,19.87
2019-02-12T19:24:29.211Z,20.13
2019-02-12T19:29:33.275Z,23.63
2019-02-12T19:34:37.437Z,23.23
2019-02-12T19:39:41.465Z,25.20
2019-02-12T19:44:45.620Z,20.53
2019-02-12T19:49:49.787Z,21.37
2019-02-12T19:54:53.859Z,21.37
2019-02-12T19:59:58.694Z,21.90
2019-02-12T20:05:05.397Z,22.67
2019-02-12T20:10:10.417Z,21.73
2019-02-12T20:15:14.571Z,21.20
2019-02-12T20:20:18.552Z,21.87
2019-02-12T20:25:22.661Z,23.23
2019-02-12T20:30:26.667Z,22.63
2019-02-12T20:35:36.261Z,24.37
2019-02-12T20:40:36.509Z,22.90
2019-02-12T20:45:40.393Z,23.33
2019-02-12T20:50:44.607Z,24.77
2019-02-12T20:55:48.643Z,23.23
2019-02-12T21:00:52.601Z,23.50
2019-02-12T21:05:56.628Z,23.13
2019-02-12T21:11:00.647Z,22.30
2019-02-12T21:16:04.987Z,22.77
2019-02-12T21:21:08.953Z,24.40
2019-02-12T21:26:12.869Z,23.47
2019-02-12T21:31:17.566Z,24.13
2019-02-12T21:36:21.815Z,24.77
2019-02-12T21:41:25.746Z,24.60
2019-02-12T21:46:29.755Z,24.97
2019-02-12T21:51:33.585Z,24.33
2019-02-12T21:56:37.607Z,23.77
2019-02-12T22:01:41.610Z,25.00
2019-02-12T22:06:45.555Z,26.23
2019-02-12T22:11:49.577Z,24.57
2019-02-12T22:16:53.783Z,25.83
2019-02-12T22:21:57.725Z,24.03
2019-02-12T22:27:01.619Z,23.93
2019-02-12T22:32:05.933Z,23.90
2019-02-12T22:37:09.905Z,24.43
2019-02-12T22:42:13.883Z,26.43
2019-02-12T22:47:18.121Z,24.77
2019-02-12T22:52:22.095Z,24.97
2019-02-12T22:57:26.065Z,27.70
2019-02-12T23:02:30.547Z,24.43
2019-02-12T23:07:34.464Z,26.53
2019-02-12T23:12:39.233Z,25.90
2019-02-12T23:17:43.856Z,26.50
2019-02-12T23:22:47.851Z,24.90
2019-02-12T23:27:57.572Z,25.03
2019-02-12T23:33:00.427Z,26.23
2019-02-12T23:38:04.557Z,26.07
2019-02-12T23:43:09.269Z,27.17
2019-02-12T23:48:14.855Z,27.03
2019-02-12T23:53:19.254Z,27.27
2019-02-12T23:58:23.211Z,28.07
